Wetterdaten: Woche 07.11.16 - 13.11.16 (KW45)
Datum Zeit Temp. A. Feuchte A. Luftdruck Regen Wind Richtung Taupunkt Windchill Windben
07.11.2016 00:00 3,9 C 84 % 1002,1 hPa 0,0 l/m 9,4 km/h N 1,5 C 1,4 C 25,3 km/h
07.11.2016 01:00 4,3 C 84 % 1002,2 hPa 0,3 l/m 8,9 km/h N 1,8 C 2,2 C 24,1 km/h
07.11.2016 02:00 4,3 C 83 % 1002,1 hPa 0,0 l/m 8,8 km/h N 1,7 C 2,3 C 22,5 km/h
07.11.2016 03:00 4,3 C 82 % 1002,4 hPa 0,0 l/m 10,8 km/h N 1,5 C 0,8 C 24,1 km/h
07.11.2016 04:00 4,2 C 82 % 1003,3 hPa 0,0 l/m 7,3 km/h N 1,4 C 3,2 C 19,7 km/h
07.11.2016 05:00 3,9 C 82 % 1003,7 hPa 0,0 l/m 4,7 km/h N 1,1 C 3,9 C 16,9 km/h
07.11.2016 06:00 4,2 C 82 % 1004,3 hPa 0,0 l/m 6,8 km/h N 1,5 C 3,6 C 19,7 km/h
07.11.2016 07:00 4,7 C 81 % 1005,2 hPa 0,0 l/m 6,4 km/h N 1,8 C 4,1 C 18,1 km/h
07.11.2016 08:00 5,3 C 81 % 1005,5 hPa 0,0 l/m 5,1 km/h N 2,3 C 5,3 C 16,1 km/h
07.11.2016 09:00 6,2 C 78 % 1006,0 hPa 0,0 l/m 5,7 km/h N 2,7 C 5,9 C 17,3 km/h
07.11.2016 10:00 6,8 C 76 % 1006,5 hPa 0,0 l/m 3,1 km/h N 2,9 C 6,8 C 12,5 km/h
07.11.2016 11:00 7,8 C 75 % 1006,7 hPa 0,0 l/m 1,2 km/h N 3,6 C 7,8 C 8,4 km/h
07.11.2016 12:00 7,8 C 68 % 1006,9 hPa 0,0 l/m 2,2 km/h N 2,3 C 7,8 C 8,9 km/h
07.11.2016 13:00 8,1 C 67 % 1007,1 hPa 0,0 l/m 0,4 km/h N 2,3 C 8,1 C 4,4 km/h
07.11.2016 14:00 7,6 C 66 % 1007,8 hPa 0,0 l/m 1,6 km/h N 1,6 C 7,6 C 8,4 km/h
07.11.2016 15:00 7,0 C 68 % 1008,2 hPa 0,0 l/m 0,9 km/h N 1,4 C 7,0 C 7,6 km/h
07.11.2016 16:00 6,5 C 72 % 1008,5 hPa 0,0 l/m 0,0 km/h N 1,8 C 6,5 C 0,8 km/h
07.11.2016 17:00 5,9 C 75 % 1009,3 hPa 0,0 l/m 0,6 km/h N 1,7 C 5,9 C 8,0 km/h
07.11.2016 18:00 5,6 C 73 % 1010,1 hPa 0,0 l/m 1,0 km/h N 1,2 C 5,6 C 7,6 km/h
07.11.2016 19:00 4,8 C 75 % 1010,3 hPa 0,0 l/m 0,1 km/h N 0,7 C 4,8 C 1,6 km/h
07.11.2016 20:00 4,0 C 78 % 1010,8 hPa 0,0 l/m 1,1 km/h N 0,5 C 4,0 C 8,4 km/h
07.11.2016 21:00 3,8 C 78 % 1011,0 hPa 0,0 l/m 2,1 km/h N 0,3 C 3,8 C 10,1 km/h
07.11.2016 22:00 3,3 C 77 % 1010,8 hPa 0,0 l/m 1,1 km/h N -0,2 C 3,3 C 7,2 km/h
07.11.2016 23:00 2,0 C 78 % 1010,8 hPa 0,0 l/m 0,0 km/h N -1,3 C 2,0 C 0,0 km/h
08.11.2016 00:00 0,3 C 80 % 1010,7 hPa 0,0 l/m 0,0 km/h N -2,8 C 0,3 C 0,4 km/h
08.11.2016 01:00 -0,6 C 82 % 1010,8 hPa 0,0 l/m 0,0 km/h N -3,3 C -0,6 C 0,0 km/h
08.11.2016 02:00 -1,4 C 83 % 1010,8 hPa 0,0 l/m 0,0 km/h N -3,9 C -1,4 C 0,4 km/h
08.11.2016 03:00 -1,7 C 84 % 1010,7 hPa 0,0 l/m 0,0 km/h N -4,1 C -1,7 C 0,0 km/h
08.11.2016 04:00 -1,6 C 84 % 1010,6 hPa 0,0 l/m 0,0 km/h N -3,9 C -1,6 C 0,4 km/h
08.11.2016 05:00 -1,5 C 84 % 1010,3 hPa 0,0 l/m 0,0 km/h N -3,9 C -1,5 C 1,2 km/h
08.11.2016 06:00 -1,5 C 84 % 1010,1 hPa 0,0 l/m 0,0 km/h N -3,8 C -1,5 C 0,0 km/h
08.11.2016 07:00 -0,8 C 84 % 1010,7 hPa 0,0 l/m 0,3 km/h N -3,2 C -0,8 C 2,4 km/h
08.11.2016 08:00 -0,4 C 84 % 1010,9 hPa 0,0 l/m 0,0 km/h N -2,8 C -0,4 C 0,0 km/h
08.11.2016 09:00 0,8 C 84 % 1010,6 hPa 0,0 l/m 0,6 km/h N -1,6 C 0,8 C 4,4 km/h
08.11.2016 10:00 2,3 C 84 % 1010,5 hPa 0,0 l/m 0,2 km/h N -0,1 C 2,3 C 2,0 km/h
08.11.2016 11:00 3,5 C 84 % 1010,4 hPa 0,0 l/m 0,0 km/h N 1,0 C 3,5 C 0,8 km/h
08.11.2016 12:00 4,3 C 83 % 1010,3 hPa 0,0 l/m 0,0 km/h N 1,7 C 4,3 C 0,0 km/h
08.11.2016 13:00 4,9 C 81 % 1010,3 hPa 0,0 l/m 0,0 km/h N 1,9 C 4,9 C 1,2 km/h
08.11.2016 14:00 4,9 C 80 % 1010,1 hPa 0,0 l/m 0,0 km/h N 1,7 C 4,9 C 0,4 km/h
08.11.2016 15:00 5,0 C 79 % 1010,3 hPa 0,0 l/m 0,0 km/h N 1,7 C 5,0 C 0,0 km/h
08.11.2016 16:00 4,6 C 79 % 1010,3 hPa 0,0 l/m 0,1 km/h N 1,3 C 4,6 C 2,4 km/h
08.11.2016 17:00 3,6 C 80 % 1010,6 hPa 0,0 l/m 0,1 km/h N 0,5 C 3,6 C 2,4 km/h
08.11.2016 18:00 3,0 C 81 % 1011,2 hPa 0,0 l/m 0,3 km/h N 0,1 C 3,0 C 4,4 km/h
08.11.2016 19:00 2,3 C 81 % 1011,5 hPa 0,0 l/m 1,6 km/h N -0,7 C 2,3 C 8,4 km/h
08.11.2016 20:00 2,0 C 81 % 1011,7 hPa 0,0 l/m 0,5 km/h N -1,0 C 2,0 C 4,8 km/h
08.11.2016 21:00 1,7 C 80 % 1011,6 hPa 0,0 l/m 0,1 km/h N -1,4 C 1,7 C 1,6 km/h
08.11.2016 22:00 1,2 C 81 % 1011,5 hPa 0,0 l/m 0,2 km/h N -1,7 C 1,2 C 2,4 km/h
08.11.2016 23:00 0,8 C 81 % 1011,4 hPa 0,0 l/m 0,0 km/h N -2,2 C 0,8 C 0,4 km/h
09.11.2016 00:00 0,1 C 82 % 1011,2 hPa 0,0 l/m 0,0 km/h N -2,6 C 0,1 C 0,8 km/h
09.11.2016 01:00 0,1 C 83 % 1011,1 hPa 0,0 l/m 2,5 km/h N -2,3 C 0,1 C 8,5 km/h
09.11.2016 02:00 0,6 C 82 % 1010,9 hPa 0,0 l/m 0,1 km/h N -2,1 C 0,6 C 1,6 km/h
09.11.2016 03:00 -0,1 C 83 % 1010,6 hPa 0,0 l/m 0,5 km/h N -2,6 C -0,1 C 4,0 km/h
09.11.2016 04:00 -0,2 C 84 % 1010,5 hPa 0,0 l/m 0,2 km/h N -2,6 C -0,2 C 2,8 km/h
09.11.2016 05:00 0,8 C 84 % 1010,2 hPa 0,0 l/m 4,9 km/h N -1,7 C 0,6 C 16,1 km/h
09.11.2016 06:00 0,7 C 83 % 1010,2 hPa 0,0 l/m 3,8 km/h N -1,9 C 0,6 C 12,5 km/h
09.11.2016 07:00 0,5 C 83 % 1010,4 hPa 0,0 l/m 0,4 km/h N -2,1 C 0,5 C 6,0 km/h
09.11.2016 08:00 1,4 C 83 % 1010,1 hPa 0,0 l/m 2,9 km/h N -1,1 C 1,4 C 10,5 km/h
09.11.2016 09:00 3,7 C 78 % 1010,0 hPa 0,0 l/m 8,6 km/h N 0,2 C 1,8 C 22,1 km/h
09.11.2016 10:00 4,7 C 73 % 1009,8 hPa 0,0 l/m 7,5 km/h N 0,2 C 3,7 C 19,3 km/h
09.11.2016 11:00 5,4 C 69 % 1009,1 hPa 0,0 l/m 4,8 km/h N 0,2 C 5,3 C 14,5 km/h
09.11.2016 12:00 6,1 C 65 % 1008,6 hPa 0,0 l/m 3,0 km/h N -0,1 C 6,1 C 12,9 km/h
09.11.2016 13:00 6,2 C 63 % 1008,1 hPa 0,0 l/m 2,9 km/h N -0,3 C 6,2 C 10,1 km/h
09.11.2016 14:00 6,6 C 59 % 1007,8 hPa 0,0 l/m 1,6 km/h N -0,9 C 6,6 C 8,1 km/h
09.11.2016 15:00 6,0 C 61 % 1007,7 hPa 0,0 l/m 0,3 km/h N -0,9 C 6,0 C 3,2 km/h
09.11.2016 16:00 4,7 C 66 % 1007,8 hPa 0,0 l/m 0,0 km/h N -1,3 C 4,7 C 0,8 km/h
09.11.2016 17:00 2,8 C 72 % 1008,0 hPa 0,0 l/m 0,0 km/h N -1,9 C 2,8 C 0,0 km/h
09.11.2016 18:00 0,6 C 77 % 1008,0 hPa 0,0 l/m 0,0 km/h N -2,9 C 0,6 C 0,0 km/h
09.11.2016 19:00 -0,4 C 81 % 1008,1 hPa 0,0 l/m 0,0 km/h N -3,3 C -0,4 C 0,0 km/h
09.11.2016 20:00 -0,9 C 83 % 1008,0 hPa 0,0 l/m 0,0 km/h N -3,5 C -0,9 C 0,0 km/h
09.11.2016 21:00 -1,4 C 83 % 1007,9 hPa 0,0 l/m 0,0 km/h N -3,9 C -1,4 C 0,0 km/h
09.11.2016 22:00 -1,8 C 84 % 1007,8 hPa 0,0 l/m 0,0 km/h N -4,1 C -1,8 C 0,0 km/h
09.11.2016 23:00 -1,5 C 84 % 1007,8 hPa 0,0 l/m 0,0 km/h N -3,9 C -1,5 C 0,0 km/h
10.11.2016 00:00 -1,2 C 84 % 1007,5 hPa 0,0 l/m 0,0 km/h N -3,5 C -1,2 C 0,0 km/h
10.11.2016 01:00 -1,2 C 84 % 1007,3 hPa 0,0 l/m 0,0 km/h N -3,5 C -1,2 C 0,0 km/h
10.11.2016 02:00 -1,0 C 84 % 1007,5 hPa 0,0 l/m 0,0 km/h N -3,4 C -1,0 C 0,0 km/h
10.11.2016 03:00 -0,8 C 84 % 1007,5 hPa 0,0 l/m 0,0 km/h N -3,1 C -0,8 C 0,0 km/h
10.11.2016 04:00 -0,3 C 84 % 1008,0 hPa 0,0 l/m 0,0 km/h N -2,6 C -0,3 C 0,0 km/h
10.11.2016 05:00 0,2 C 84 % 1008,0 hPa 0,8 l/m 0,0 km/h N -2,2 C 0,2 C 0,0 km/h
10.11.2016 06:00 0,6 C 84 % 1008,1 hPa 0,3 l/m 0,0 km/h N -1,8 C 0,6 C 1,6 km/h
10.11.2016 07:00 1,0 C 84 % 1008,5 hPa 0,3 l/m 0,0 km/h N -1,4 C 1,0 C 1,2 km/h
10.11.2016 08:00 1,6 C 84 % 1008,6 hPa 0,0 l/m 0,0 km/h N -0,8 C 1,6 C 2,4 km/h
10.11.2016 09:00 2,4 C 84 % 1008,5 hPa 0,0 l/m 0,1 km/h N -0,0 C 2,4 C 2,0 km/h
10.11.2016 10:00 4,2 C 84 % 1008,8 hPa 0,0 l/m 0,4 km/h N 1,6 C 4,2 C 6,0 km/h
10.11.2016 11:00 5,2 C 83 % 1009,1 hPa 0,0 l/m 0,1 km/h N 2,5 C 5,2 C 2,0 km/h
10.11.2016 12:00 7,4 C 81 % 1008,8 hPa 0,0 l/m 3,9 km/h N 4,2 C 7,2 C 17,7 km/h
10.11.2016 13:00 9,3 C 71 % 1008,6 hPa 0,0 l/m 3,0 km/h N 4,2 C 9,3 C 12,4 km/h
10.11.2016 14:00 10,4 C 69 % 1008,5 hPa 0,0 l/m 2,8 km/h N 4,8 C 10,4 C 11,7 km/h
10.11.2016 15:00 7,0 C 78 % 1009,7 hPa 1,0 l/m 3,0 km/h N 3,4 C 7,0 C 15,3 km/h
10.11.2016 16:00 5,9 C 81 % 1010,0 hPa 0,0 l/m 3,4 km/h N 2,9 C 5,9 C 14,5 km/h
10.11.2016 17:00 5,7 C 81 % 1010,4 hPa 0,0 l/m 1,9 km/h N 2,7 C 5,7 C 7,2 km/h
10.11.2016 18:00 5,4 C 80 % 1010,7 hPa 0,0 l/m 0,9 km/h N 2,3 C 5,4 C 8,0 km/h
10.11.2016 19:00 5,6 C 80 % 1011,0 hPa 0,0 l/m 0,3 km/h N 2,4 C 5,6 C 4,0 km/h
10.11.2016 20:00 4,4 C 80 % 1011,6 hPa 0,0 l/m 0,0 km/h N 1,3 C 4,4 C 0,0 km/h
10.11.2016 21:00 3,9 C 82 % 1012,0 hPa 0,0 l/m 0,0 km/h N 1,1 C 3,9 C 0,8 km/h
10.11.2016 22:00 3,0 C 83 % 1012,2 hPa 0,0 l/m 0,0 km/h N 0,4 C 3,0 C 0,0 km/h
10.11.2016 23:00 2,6 C 84 % 1012,2 hPa 0,0 l/m 0,0 km/h N 0,1 C 2,6 C 0,0 km/h
11.11.2016 00:00 2,3 C 85 % 1011,8 hPa 0,0 l/m 0,0 km/h N 0,1 C 2,3 C 0,4 km/h
11.11.2016 01:00 1,6 C 84 % 1011,7 hPa 0,0 l/m 0,0 km/h N -0,8 C 1,6 C 0,4 km/h
11.11.2016 02:00 1,6 C 84 % 1011,8 hPa 0,0 l/m 0,0 km/h N -0,8 C 1,6 C 1,2 km/h
11.11.2016 03:00 2,0 C 84 % 1011,5 hPa 0,0 l/m 0,1 km/h N -0,4 C 2,0 C 1,2 km/h
11.11.2016 04:00 1,9 C 84 % 1011,4 hPa 0,0 l/m 0,0 km/h N -0,5 C 1,9 C 0,4 km/h
11.11.2016 05:00 1,7 C 84 % 1011,1 hPa 0,0 l/m 0,0 km/h N -0,7 C 1,7 C 0,0 km/h
11.11.2016 06:00 1,0 C 84 % 1011,0 hPa 0,0 l/m 0,0 km/h N -1,4 C 1,0 C 0,0 km/h
11.11.2016 07:00 -0,2 C 84 % 1011,4 hPa 0,0 l/m 0,0 km/h N -2,5 C -0,2 C 0,0 km/h
11.11.2016 08:00 0,1 C 84 % 1012,1 hPa 0,0 l/m 0,0 km/h N -2,3 C 0,1 C 0,8 km/h
11.11.2016 09:00 1,1 C 84 % 1012,5 hPa 0,0 l/m 0,0 km/h N -1,3 C 1,1 C 1,2 km/h
11.11.2016 10:00 2,3 C 84 % 1012,8 hPa 0,0 l/m 0,0 km/h N -0,1 C 2,3 C 0,8 km/h
11.11.2016 11:00 2,9 C 84 % 1013,0 hPa 0,0 l/m 0,0 km/h N 0,5 C 2,9 C 1,2 km/h
11.11.2016 12:00 3,0 C 84 % 1013,0 hPa 0,0 l/m 0,0 km/h N 0,5 C 3,0 C 1,2 km/h
11.11.2016 13:00 3,3 C 84 % 1013,5 hPa 0,0 l/m 0,0 km/h N 0,8 C 3,3 C 0,8 km/h
11.11.2016 14:00 3,7 C 84 % 1014,0 hPa 0,0 l/m 0,1 km/h N 1,2 C 3,7 C 2,0 km/h
11.11.2016 15:00 4,1 C 84 % 1014,8 hPa 0,0 l/m 0,3 km/h N 1,5 C 4,1 C 4,8 km/h
11.11.2016 16:00 4,3 C 84 % 1015,0 hPa 0,0 l/m 0,3 km/h N 1,8 C 4,3 C 4,4 km/h
11.11.2016 17:00 4,5 C 84 % 1015,8 hPa 0,0 l/m 0,5 km/h N 2,0 C 4,5 C 5,2 km/h
11.11.2016 18:00 4,6 C 84 % 1016,3 hPa 0,0 l/m 2,0 km/h N 2,1 C 4,6 C 8,9 km/h
11.11.2016 19:00 4,6 C 84 % 1016,8 hPa 0,0 l/m 1,9 km/h N 2,2 C 4,6 C 7,2 km/h
11.11.2016 20:00 4,8 C 84 % 1017,2 hPa 0,0 l/m 0,6 km/h N 2,3 C 4,8 C 6,0 km/h
11.11.2016 21:00 4,7 C 84 % 1017,6 hPa 0,0 l/m 0,6 km/h N 2,2 C 4,7 C 6,4 km/h
11.11.2016 22:00 4,7 C 84 % 1017,7 hPa 0,0 l/m 1,3 km/h N 2,2 C 4,7 C 8,0 km/h
11.11.2016 23:00 4,7 C 84 % 1017,6 hPa 0,3 l/m 2,1 km/h N 2,2 C 4,7 C 8,4 km/h
12.11.2016 00:00 4,7 C 84 % 1017,8 hPa 1,3 l/m 1,7 km/h N 2,1 C 4,7 C 7,2 km/h
12.11.2016 01:00 4,1 C 84 % 1018,0 hPa 1,3 l/m 2,9 km/h N 1,6 C 4,1 C 10,9 km/h
12.11.2016 02:00 3,5 C 84 % 1018,5 hPa 2,1 l/m 2,8 km/h N 1,1 C 3,5 C 12,1 km/h
12.11.2016 03:00 2,4 C 84 % 1018,9 hPa 2,6 l/m 3,5 km/h N 0,0 C 2,4 C 11,3 km/h
12.11.2016 04:00 1,5 C 84 % 1019,1 hPa 1,6 l/m 3,2 km/h N -1,0 C 1,5 C 11,7 km/h
12.11.2016 05:00 1,5 C 84 % 1019,3 hPa 0,5 l/m 4,2 km/h N -1,0 C 1,5 C 14,9 km/h
12.11.2016 06:00 1,3 C 84 % 1019,5 hPa 1,0 l/m 4,2 km/h N -1,1 C 1,3 C 14,1 km/h
12.11.2016 07:00 1,1 C 84 % 1020,1 hPa 0,8 l/m 4,4 km/h N -1,3 C 1,1 C 14,9 km/h
12.11.2016 08:00 1,1 C 84 % 1020,7 hPa 0,5 l/m 5,8 km/h N -1,3 C 1,1 C 16,1 km/h
12.11.2016 09:00 1,0 C 84 % 1021,3 hPa 0,8 l/m 5,8 km/h N -1,3 C 1,0 C 16,9 km/h
12.11.2016 10:00 1,1 C 84 % 1021,6 hPa 0,5 l/m 6,8 km/h N -1,3 C 0,8 C 19,7 km/h
12.11.2016 11:00 1,4 C 84 % 1021,4 hPa 0,5 l/m 7,6 km/h N -1,0 C 0,2 C 20,5 km/h
12.11.2016 12:00 1,8 C 84 % 1021,2 hPa 0,0 l/m 7,6 km/h N -0,6 C 0,6 C 20,1 km/h
12.11.2016 13:00 2,1 C 84 % 1021,0 hPa 0,0 l/m 8,0 km/h N -0,3 C 0,6 C 22,1 km/h
12.11.2016 14:00 2,5 C 84 % 1020,8 hPa 0,0 l/m 6,9 km/h N 0,1 C 1,9 C 19,3 km/h
12.11.2016 15:00 2,6 C 83 % 1021,0 hPa 0,0 l/m 7,9 km/h N -0,0 C 1,2 C 24,1 km/h
12.11.2016 16:00 2,3 C 82 % 1021,4 hPa 0,0 l/m 6,6 km/h N -0,4 C 1,9 C 18,9 km/h
12.11.2016 17:00 2,2 C 81 % 1021,9 hPa 0,0 l/m 5,9 km/h N -0,7 C 2,1 C 17,3 km/h
12.11.2016 18:00 2,2 C 82 % 1022,4 hPa 0,0 l/m 6,5 km/h N -0,6 C 2,0 C 20,1 km/h
12.11.2016 19:00 2,0 C 81 % 1022,8 hPa 0,0 l/m 7,5 km/h N -0,9 C 0,9 C 22,1 km/h
12.11.2016 20:00 1,6 C 79 % 1023,1 hPa 0,0 l/m 8,7 km/h N -1,6 C -0,4 C 24,1 km/h
12.11.2016 21:00 1,3 C 77 % 1023,7 hPa 0,0 l/m 7,1 km/h N -2,2 C 0,4 C 22,1 km/h
12.11.2016 22:00 1,3 C 76 % 1023,9 hPa 0,0 l/m 6,7 km/h N -2,5 C 1,0 C 21,3 km/h
12.11.2016 23:00 1,2 C 75 % 1023,6 hPa 0,0 l/m 6,7 km/h N -2,7 C 0,8 C 19,3 km/h
13.11.2016 00:00 1,1 C 75 % 1023,3 hPa 0,0 l/m 6,8 km/h N -2,8 C 0,7 C 19,7 km/h
13.11.2016 01:00 1,0 C 74 % 1023,3 hPa 0,0 l/m 8,3 km/h N -3,1 C -0,7 C 22,9 km/h
13.11.2016 02:00 1,0 C 73 % 1023,3 hPa 0,0 l/m 6,4 km/h N -3,3 C 0,4 C 20,9 km/h
13.11.2016 03:00 0,7 C 75 % 1023,5 hPa 0,0 l/m 5,5 km/h N -3,2 C 0,7 C 18,1 km/h
13.11.2016 04:00 0,6 C 75 % 1023,9 hPa 0,0 l/m 6,5 km/h N -3,4 C 0,3 C 20,9 km/h
13.11.2016 05:00 0,4 C 75 % 1024,4 hPa 0,0 l/m 6,1 km/h N -3,5 C -0,1 C 19,7 km/h
13.11.2016 06:00 0,8 C 74 % 1024,8 hPa 0,0 l/m 8,5 km/h N -3,4 C -1,3 C 22,1 km/h
13.11.2016 07:00 0,7 C 74 % 1025,3 hPa 0,0 l/m 9,8 km/h N -3,4 C -2,5 C 26,5 km/h
13.11.2016 08:00 0,7 C 74 % 1026,4 hPa 0,0 l/m 9,0 km/h N -3,4 C -1,8 C 24,5 km/h
13.11.2016 09:00 1,1 C 69 % 1027,1 hPa 0,0 l/m 11,6 km/h N -4,0 C -3,5 C 28,6 km/h
13.11.2016 10:00 1,8 C 64 % 1028,0 hPa 0,0 l/m 10,1 km/h N -4,3 C -1,5 C 26,6 km/h
13.11.2016 11:00 2,5 C 60 % 1027,8 hPa 0,0 l/m 8,5 km/h N -4,5 C 0,5 C 23,7 km/h
13.11.2016 12:00 2,7 C 59 % 1028,0 hPa 0,0 l/m 8,2 km/h N -4,6 C 1,1 C 22,1 km/h
13.11.2016 13:00 2,6 C 58 % 1028,1 hPa 0,0 l/m 8,5 km/h N -4,8 C 0,6 C 22,5 km/h
13.11.2016 14:00 2,7 C 58 % 1028,3 hPa 0,0 l/m 7,5 km/h N -4,6 C 1,7 C 21,3 km/h
13.11.2016 15:00 2,7 C 59 % 1028,7 hPa 0,0 l/m 4,4 km/h N -4,6 C 2,7 C 17,3 km/h
13.11.2016 16:00 1,8 C 62 % 1029,1 hPa 0,0 l/m 1,0 km/h N -4,7 C 1,8 C 6,8 km/h
13.11.2016 17:00 1,1 C 66 % 1029,6 hPa 0,0 l/m 1,3 km/h N -4,5 C 1,1 C 6,4 km/h
13.11.2016 18:00 1,4 C 64 % 1029,7 hPa 0,0 l/m 4,5 km/h N -4,6 C 1,4 C 13,3 km/h
13.11.2016 19:00 0,9 C 66 % 1030,2 hPa 0,0 l/m 2,8 km/h N -4,8 C 0,9 C 10,1 km/h
13.11.2016 20:00 1,0 C 68 % 1030,9 hPa 0,0 l/m 3,4 km/h N -4,3 C 1,0 C 11,7 km/h
13.11.2016 21:00 1,3 C 70 % 1031,2 hPa 0,0 l/m 3,0 km/h N -3,7 C 1,3 C 12,9 km/h
13.11.2016 22:00 1,0 C 73 % 1031,4 hPa 0,0 l/m 3,2 km/h N -3,4 C 1,0 C 9,3 km/h
13.11.2016 23:00 0,6 C 73 % 1031,6 hPa 0,0 l/m 1,9 km/h N -3,7 C 0,6 C 8,8 km/h
Min-Datum _ 09.11.16 09.11.16 07.11.16 - 07.11.16 - 13.11.16 13.11.16 07.11.16
_ Min-Zeit 22:30 14:30 00:00 - 14:00 - 19:15 09:30 16:15
Minimum _ -1,9 C 58 % 1002,0 hPa - 0,0 km/h - -4,9 C -3,9 C 0,0 km/h
Max-Datum _ 10.11.16 11.11.16 13.11.16 12.11.16 13.11.16 - 10.11.16 10.11.16 07.11.16
_ Max-Zeit 14:15 00:15 23:45 03:30 09:30 - 14:30 14:15 00:45
Maximum _ 10,7 C 89 % 1031,8 hPa 2,6 l/m 12,2 km/h
N
- 5,3 C 10,7 C 35,4 km/h
N
Durchschnitt _ 2,6 C 79 % 1014,0 hPa #16,4 l/m 2,7 km/h N -0,8 C 2,3 C 9,1 km/h